Time;durP1;ratioP1;P1;durP2;ratioP2;P2;SDS_P1;SDS_P2;PMS_P1;PMS_P2;Temp;Humidity;BMP_temperature;BMP_pressure;BME280_temperature;BME280_humidity;BME280_pressure;Samples;Min_cycle;Max_cycle;Signal;HPM_P1;HPM_P2
2022/08/09 00:01:47;;;;;;;8.85;5.65;;;13.00;99.90;;;;;;5112764;28;20571;-61
2022/08/09 00:04:17;;;;;;;12.80;6.70;;;13.00;99.90;;;;;;5110784;28;20132;-61
2022/08/09 00:06:43;;;;;;;8.00;5.67;;;13.00;99.90;;;;;;5095630;28;20518;-61
2022/08/09 00:09:09;;;;;;;8.23;5.72;;;13.00;99.90;;;;;;5112762;28;20392;-61
2022/08/09 00:11:37;;;;;;;7.53;6.10;;;13.00;99.90;;;;;;5112628;28;20050;-61
2022/08/09 00:14:03;;;;;;;6.90;5.35;;;13.00;99.90;;;;;;5112602;28;20032;-62
2022/08/09 00:16:29;;;;;;;7.03;5.78;;;13.00;99.90;;;;;;5113997;28;20115;-61
2022/08/09 00:18:55;;;;;;;6.30;5.18;;;13.00;99.90;;;;;;5112872;28;20127;-62
2022/08/09 00:21:21;;;;;;;5.82;4.85;;;13.00;99.90;;;;;;5094964;28;20050;-62
2022/08/09 00:23:47;;;;;;;8.05;5.90;;;13.00;99.90;;;;;;5095714;28;20053;-61
2022/08/09 00:26:12;;;;;;;6.72;4.43;;;13.00;99.90;;;;;;5113682;28;20115;-61
2022/08/09 00:28:38;;;;;;;6.07;4.50;;;13.00;99.90;;;;;;5095265;28;20048;-61
2022/08/09 00:31:04;;;;;;;5.38;4.13;;;13.00;99.90;;;;;;5111347;28;20104;-61
2022/08/09 00:33:30;;;;;;;4.70;3.75;;;13.00;99.90;;;;;;5111237;28;20044;-62
2022/08/09 00:35:58;;;;;;;4.82;3.00;;;12.90;99.90;;;;;;5107027;28;20522;-61
2022/08/09 00:38:24;;;;;;;4.47;2.92;;;12.90;99.90;;;;;;5090940;28;20181;-61
2022/08/09 00:40:51;;;;;;;11.73;3.88;;;12.90;99.90;;;;;;5092058;28;20039;-61
2022/08/09 00:43:17;;;;;;;9.65;3.25;;;12.90;99.90;;;;;;5110308;28;20040;-61
2022/08/09 00:45:42;;;;;;;7.72;3.50;;;12.80;99.90;;;;;;5111239;28;20110;-61
2022/08/09 00:48:08;;;;;;;9.60;4.03;;;12.80;99.90;;;;;;5112546;28;20554;-61
2022/08/09 00:50:35;;;;;;;16.45;4.40;;;12.80;99.90;;;;;;5094140;28;20050;-61
2022/08/09 00:53:01;;;;;;;4.70;3.20;;;12.80;99.90;;;;;;5093747;28;20131;-61
2022/08/09 00:55:26;;;;;;;4.25;2.90;;;12.80;99.90;;;;;;5094233;28;20122;-62
2022/08/09 00:57:52;;;;;;;6.97;4.18;;;12.80;99.90;;;;;;5112150;28;20448;-61
2022/08/09 01:00:18;;;;;;;7.05;3.70;;;12.80;99.90;;;;;;5111102;28;20047;-61
2022/08/09 01:02:49;;;;;;;4.00;3.40;;;12.70;99.90;;;;;;5110908;28;20043;-61
2022/08/09 01:05:43;;;;;;;3.88;3.08;;;12.60;99.90;;;;;;5108403;28;20035;-61
2022/08/09 01:08:33;;;;;;;6.03;3.28;;;12.40;99.90;;;;;;5092310;28;20399;-62
2022/08/09 01:11:08;;;;;;;5.00;4.10;;;12.30;99.90;;;;;;5077053;28;20039;-62
2022/08/09 01:13:49;;;;;;;7.38;4.38;;;12.30;99.90;;;;;;5093744;28;20131;-61
2022/08/09 01:16:19;;;;;;;4.97;3.90;;;12.30;99.90;;;;;;5094499;28;20043;-62
2022/08/09 01:18:47;;;;;;;5.03;3.42;;;12.20;99.90;;;;;;5094975;28;20028;-61
2022/08/09 01:21:19;;;;;;;6.85;4.68;;;12.20;99.90;;;;;;5094937;28;20384;-61
2022/08/09 01:23:54;;;;;;;7.18;4.60;;;12.10;99.90;;;;;;5112994;28;20403;-61
2022/08/09 01:26:35;;;;;;;8.20;5.63;;;12.20;99.90;;;;;;5112971;28;20036;-61
2022/08/09 01:29:03;;;;;;;9.82;4.90;;;12.20;99.90;;;;;;5094881;28;20127;-61
2022/08/09 01:31:33;;;;;;;8.60;4.47;;;12.20;99.90;;;;;;5112983;28;20043;-63
2022/08/09 01:34:01;;;;;;;12.23;5.23;;;12.20;99.90;;;;;;5097806;28;20081;-62
2022/08/09 01:36:29;;;;;;;6.20;4.95;;;12.30;99.90;;;;;;5081044;28;20331;-63
2022/08/09 01:38:56;;;;;;;13.45;4.32;;;12.30;99.90;;;;;;5098648;28;20440;-62
2022/08/09 01:41:27;;;;;;;10.68;4.80;;;12.40;99.90;;;;;;5098278;28;20605;-61
2022/08/09 01:43:59;;;;;;;10.75;5.10;;;12.40;99.90;;;;;;5116656;28;20576;-62
2022/08/09 01:46:31;;;;;;;9.95;4.43;;;12.40;99.90;;;;;;5116834;28;20104;-63
2022/08/09 01:49:00;;;;;;;6.85;2.92;;;12.40;99.90;;;;;;5098690;28;20031;-62
2022/08/09 01:51:28;;;;;;;8.40;2.80;;;12.40;99.90;;;;;;5098196;28;20050;-62
2022/08/09 01:53:57;;;;;;;17.40;2.90;;;12.40;99.90;;;;;;5098296;28;20153;-62
2022/08/09 01:56:25;;;;;;;25.08;3.60;;;12.40;99.90;;;;;;5081058;28;20032;-62
2022/08/09 01:58:52;;;;;;;3.78;2.10;;;12.30;99.90;;;;;;5098391;28;20391;-62
2022/08/09 02:01:20;;;;;;;5.80;3.00;;;12.30;99.90;;;;;;5098095;28;20115;-62
2022/08/09 02:03:48;;;;;;;4.25;2.85;;;12.20;99.90;;;;;;5098460;28;20054;-62
2022/08/09 02:06:15;;;;;;;5.70;3.55;;;12.20;99.90;;;;;;5113740;28;20066;-62
2022/08/09 02:08:44;;;;;;;6.57;3.65;;;12.20;99.90;;;;;;5098019;28;20480;-62
2022/08/09 02:11:13;;;;;;;6.57;3.42;;;12.10;99.90;;;;;;5116153;28;20083;-62
2022/08/09 02:13:40;;;;;;;27.10;5.13;;;12.10;99.90;;;;;;5098000;28;20093;-62
2022/08/09 02:16:10;;;;;;;7.32;4.45;;;12.10;99.90;;;;;;5098050;28;20078;-62
2022/08/09 02:18:37;;;;;;;16.02;5.32;;;12.10;99.90;;;;;;5116202;28;20500;-62
2022/08/09 02:21:09;;;;;;;9.00;4.55;;;12.10;99.90;;;;;;5097813;28;20039;-62
2022/08/09 02:23:42;;;;;;;7.78;3.58;;;12.00;99.90;;;;;;5097737;28;20043;-62
2022/08/09 02:26:12;;;;;;;6.97;3.50;;;12.00;99.90;;;;;;5097616;28;20043;-62
2022/08/09 02:28:43;;;;;;;3.70;2.75;;;12.00;99.90;;;;;;5116105;28;20427;-62
2022/08/09 02:31:21;;;;;;;3.83;2.50;;;12.00;99.90;;;;;;5080713;28;20040;-62
2022/08/09 02:33:51;;;;;;;6.95;3.10;;;11.90;99.90;;;;;;5097454;28;20491;-62
2022/08/09 02:36:21;;;;;;;15.27;4.45;;;11.90;99.90;;;;;;5078320;28;20042;-62
2022/08/09 02:38:54;;;;;;;9.63;3.63;;;11.90;99.90;;;;;;5097586;28;20042;-62
2022/08/09 02:41:31;;;;;;;5.95;3.10;;;11.80;99.90;;;;;;5096303;28;20043;-61
2022/08/09 02:44:02;;;;;;;13.40;4.35;;;11.80;99.90;;;;;;5096182;28;20484;-62
2022/08/09 02:46:29;;;;;;;43.83;7.13;;;11.70;99.90;;;;;;5096209;28;20092;-61
2022/08/09 02:49:00;;;;;;;5.50;3.35;;;11.70;99.90;;;;;;5114442;28;20044;-62
2022/08/09 02:51:29;;;;;;;10.38;5.38;;;11.70;99.90;;;;;;5114452;28;20127;-62
2022/08/09 02:53:57;;;;;;;16.00;5.18;;;11.70;99.90;;;;;;5096554;28;20039;-62
2022/08/09 02:56:26;;;;;;;13.68;5.45;;;11.70;99.90;;;;;;5114524;28;20040;-62
2022/08/09 02:58:53;;;;;;;12.98;6.55;;;11.70;99.90;;;;;;5096130;28;20043;-62
2022/08/09 03:01:20;;;;;;;13.10;6.45;;;11.80;99.90;;;;;;5096058;28;20050;-61
2022/08/09 03:03:47;;;;;;;12.75;5.60;;;11.80;99.90;;;;;;5079279;28;20058;-62
2022/08/09 03:06:14;;;;;;;22.83;6.70;;;11.90;99.90;;;;;;5111580;28;20404;-62
2022/08/09 03:08:45;;;;;;;20.83;6.20;;;11.90;99.90;;;;;;5114391;28;20055;-61
2022/08/09 03:11:15;;;;;;;;;;;12.00;99.90;;;;;;5096083;28;20120;-61
2022/08/09 03:13:44;;;;;;;66.65;8.98;;;12.00;99.90;;;;;;5095618;28;19931;-61
2022/08/09 03:16:11;;;;;;;28.90;6.28;;;12.10;99.90;;;;;;5096189;28;20387;-62
2022/08/09 03:18:38;;;;;;;12.65;4.57;;;12.10;99.90;;;;;;5096117;28;20044;-62
2022/08/09 03:21:05;;;;;;;33.97;6.53;;;12.10;99.90;;;;;;5079030;28;20035;-61
2022/08/09 03:23:31;;;;;;;31.95;5.25;;;12.10;99.90;;;;;;5095773;28;20256;-61
2022/08/09 03:25:58;;;;;;;18.67;4.95;;;12.00;99.90;;;;;;5095762;28;20123;-62
2022/08/09 03:28:25;;;;;;;26.00;5.75;;;12.10;99.90;;;;;;5095755;28;20160;-62
2022/08/09 03:30:53;;;;;;;15.77;5.15;;;12.00;99.90;;;;;;5113878;28;20040;-61
2022/08/09 03:33:20;;;;;;;8.80;4.20;;;12.00;99.90;;;;;;5095270;28;20073;-61
2022/08/09 03:35:50;;;;;;;10.55;4.55;;;12.00;99.90;;;;;;5092850;28;20513;-62
2022/08/09 03:38:17;;;;;;;6.80;4.28;;;12.00;99.90;;;;;;5095469;28;20093;-62
2022/08/09 03:40:42;;;;;;;9.18;3.92;;;12.00;99.90;;;;;;5095313;28;20043;-62
2022/08/09 03:43:08;;;;;;;7.20;4.38;;;12.00;99.90;;;;;;5113667;28;20035;-61
2022/08/09 03:45:35;;;;;;;13.07;4.95;;;12.00;99.90;;;;;;5078737;28;20432;-61
2022/08/09 03:48:03;;;;;;;8.73;4.05;;;12.00;99.90;;;;;;5095175;28;20038;-61
2022/08/09 03:50:32;;;;;;;15.98;4.97;;;12.00;99.90;;;;;;5113503;28;20396;-61
2022/08/09 03:53:01;;;;;;;9.02;4.05;;;12.00;99.90;;;;;;5113267;28;20388;-61
2022/08/09 03:55:26;;;;;;;8.93;4.18;;;12.00;99.90;;;;;;5094355;28;20123;-61
2022/08/09 03:57:53;;;;;;;8.60;3.97;;;12.10;99.90;;;;;;5113362;28;20191;-61
2022/08/09 04:00:19;;;;;;;21.20;4.97;;;12.10;99.90;;;;;;5095260;28;20177;-61
2022/08/09 04:02:46;;;;;;;29.83;4.15;;;12.10;99.90;;;;;;5095068;28;20040;-62
2022/08/09 04:05:13;;;;;;;20.85;3.63;;;12.00;99.90;;;;;;5092590;28;20328;-61
2022/08/09 04:07:39;;;;;;;11.85;3.15;;;12.00;99.90;;;;;;5094646;28;20056;-62
2022/08/09 04:10:05;;;;;;;3.90;1.77;;;12.00;99.90;;;;;;5112998;28;20047;-61
2022/08/09 04:12:39;;;;;;;10.93;2.92;;;11.90;99.90;;;;;;5094936;28;20051;-61
2022/08/09 04:15:05;;;;;;;20.27;3.67;;;11.80;99.90;;;;;;5112995;28;20157;-61
2022/08/09 04:17:31;;;;;;;11.38;2.45;;;11.80;99.90;;;;;;5094532;28;20540;-61
2022/08/09 04:19:57;;;;;;;13.23;2.55;;;11.80;99.90;;;;;;5112865;28;20119;-61
2022/08/09 04:22:23;;;;;;;7.82;2.70;;;11.70;99.90;;;;;;5112642;28;20036;-61
2022/08/09 04:24:49;;;;;;;6.95;2.53;;;11.70;99.90;;;;;;5077616;28;20062;-62
2022/08/09 04:27:15;;;;;;;6.72;3.80;;;11.70;99.90;;;;;;5112850;28;20050;-61
2022/08/09 04:29:41;;;;;;;7.78;3.53;;;11.70;99.90;;;;;;5077483;28;20047;-61
2022/08/09 04:32:07;;;;;;;34.53;4.25;;;11.70;99.90;;;;;;5094468;28;20100;-61
2022/08/09 04:34:33;;;;;;;24.60;3.38;;;11.70;99.90;;;;;;5091871;28;20044;-61
2022/08/09 04:37:00;;;;;;;30.88;3.80;;;11.60;99.90;;;;;;5094330;28;20047;-61
2022/08/09 04:39:25;;;;;;;14.25;3.58;;;11.70;99.90;;;;;;5077714;28;20035;-61
2022/08/09 04:41:51;;;;;;;5.95;2.75;;;11.60;99.90;;;;;;5112467;28;20621;-61
2022/08/09 04:44:17;;;;;;;4.07;1.85;;;11.60;99.90;;;;;;5112518;28;20035;-61
2022/08/09 04:46:43;;;;;;;2.90;1.90;;;11.60;99.90;;;;;;5112567;28;20385;-61
2022/08/09 04:49:09;;;;;;;4.60;2.35;;;11.60;99.90;;;;;;5094434;28;20097;-61
2022/08/09 04:51:35;;;;;;;4.72;2.88;;;11.70;99.90;;;;;;5112189;28;20096;-61
2022/08/09 04:54:01;;;;;;;4.20;2.65;;;11.60;99.90;;;;;;5077236;28;20096;-62
2022/08/09 04:56:29;;;;;;;6.22;2.65;;;11.60;99.90;;;;;;5112457;28;20161;-61
2022/08/09 04:58:55;;;;;;;6.57;2.85;;;11.60;99.90;;;;;;5094185;28;20050;-61
2022/08/09 05:01:21;;;;;;;4.18;2.75;;;11.60;99.90;;;;;;5112312;28;20036;-62
2022/08/09 05:03:47;;;;;;;4.93;2.75;;;11.70;99.90;;;;;;5094856;28;20051;-61
2022/08/09 05:06:14;;;;;;;6.55;3.78;;;11.70;99.90;;;;;;5112185;28;20047;-61
2022/08/09 05:08:40;;;;;;;24.65;4.88;;;11.80;99.90;;;;;;5117670;28;20411;-61
2022/08/09 05:11:06;;;;;;;23.95;4.55;;;11.80;99.90;;;;;;5099151;28;20048;-61
2022/08/09 05:13:32;;;;;;;5.40;3.55;;;11.90;99.90;;;;;;5099159;28;20066;-61
2022/08/09 05:15:58;;;;;;;4.75;3.03;;;11.90;99.90;;;;;;5117290;28;20136;-61
2022/08/09 05:18:28;;;;;;;6.35;3.97;;;11.90;99.90;;;;;;5117441;28;20071;-61
2022/08/09 05:20:56;;;;;;;7.65;4.78;;;12.00;99.90;;;;;;5082031;28;20046;-61
2022/08/09 05:23:22;;;;;;;9.52;5.05;;;12.00;99.90;;;;;;5098939;28;20082;-61
2022/08/09 05:25:48;;;;;;;11.55;5.43;;;12.10;99.90;;;;;;5099277;28;20079;-61
2022/08/09 05:28:14;;;;;;;11.73;5.60;;;12.20;99.90;;;;;;5098730;28;20568;-61
2022/08/09 05:30:39;;;;;;;9.32;4.70;;;12.20;99.90;;;;;;5081859;28;20035;-61
2022/08/09 05:33:05;;;;;;;8.65;4.63;;;12.40;99.90;;;;;;5116888;28;20071;-62
2022/08/09 05:35:31;;;;;;;7.78;4.13;;;12.50;99.90;;;;;;5096336;28;20079;-61
2022/08/09 05:37:58;;;;;;;7.05;4.50;;;12.50;99.90;;;;;;5098623;28;20119;-61
2022/08/09 05:40:25;;;;;;;12.30;6.28;;;12.70;99.90;;;;;;5098730;28;20123;-61
2022/08/09 05:42:51;;;;;;;9.30;5.78;;;12.80;99.90;;;;;;5098795;28;20361;-62
2022/08/09 05:45:17;;;;;;;10.60;6.75;;;12.90;99.90;;;;;;5098656;28;20050;-61
2022/08/09 05:47:43;;;;;;;8.32;5.60;;;13.10;99.90;;;;;;5098363;28;20515;-62
2022/08/09 05:50:09;;;;;;;9.68;6.72;;;13.20;99.90;;;;;;5098758;28;20051;-62
2022/08/09 05:52:35;;;;;;;13.05;6.80;;;13.40;99.90;;;;;;5116899;28;20066;-62
2022/08/09 05:55:01;;;;;;;10.20;6.72;;;13.50;99.90;;;;;;5098318;28;20091;-62
2022/08/09 05:57:27;;;;;;;8.38;5.82;;;13.60;99.90;;;;;;5081335;28;20417;-62
2022/08/09 05:59:53;;;;;;;11.35;6.38;;;13.70;99.90;;;;;;5116460;28;20047;-62
2022/08/09 06:02:19;;;;;;;10.93;6.30;;;13.80;99.90;;;;;;5115393;28;20032;-62
2022/08/09 06:04:44;;;;;;;10.88;6.07;;;13.90;99.90;;;;;;5113062;28;20047;-62
2022/08/09 06:07:10;;;;;;;8.93;5.70;;;14.10;99.90;;;;;;5115231;28;20897;-62
2022/08/09 06:09:36;;;;;;;9.93;6.72;;;14.20;99.90;;;;;;5116453;28;20070;-62
2022/08/09 06:12:03;;;;;;;9.60;6.05;;;14.40;99.90;;;;;;5116384;28;20035;-62
2022/08/09 06:14:28;;;;;;;9.32;6.50;;;14.50;99.90;;;;;;5116095;28;20044;-62
2022/08/09 06:16:54;;;;;;;9.65;6.28;;;14.70;99.90;;;;;;5114855;28;20047;-62
2022/08/09 06:19:20;;;;;;;11.00;6.93;;;14.80;99.90;;;;;;5114008;28;20040;-62
2022/08/09 06:21:46;;;;;;;12.48;7.35;;;15.00;99.90;;;;;;5116065;28;20071;-61
2022/08/09 06:24:12;;;;;;;12.13;7.07;;;15.30;99.90;;;;;;5118066;27;20357;-61
2022/08/09 06:26:40;;;;;;;11.75;7.28;;;15.50;99.90;;;;;;5114860;28;20119;-61
2022/08/09 06:29:08;;;;;;;11.25;7.03;;;15.70;99.90;;;;;;5097511;28;20475;-61
2022/08/09 06:31:35;;;;;;;7.82;6.88;;;15.90;99.90;;;;;;5097378;28;20093;-62
2022/08/09 06:34:02;;;;;;;12.38;6.78;;;16.20;99.90;;;;;;5115275;28;20055;-61
2022/08/09 06:36:27;;;;;;;7.45;5.78;;;16.40;99.90;;;;;;5112902;28;20071;-62
2022/08/09 06:38:53;;;;;;;7.82;4.65;;;16.80;99.90;;;;;;5113946;28;20075;-61
2022/08/09 06:41:20;;;;;;;7.90;4.78;;;17.10;99.90;;;;;;5114144;28;20376;-61
2022/08/09 06:43:46;;;;;;;7.00;4.70;;;17.40;99.90;;;;;;5097014;28;20043;-62
2022/08/09 06:46:13;;;;;;;5.88;4.57;;;17.80;99.90;;;;;;5096490;28;20431;-62
2022/08/09 06:48:41;;;;;;;8.43;5.07;;;18.00;99.90;;;;;;5097349;28;20051;-62
2022/08/09 06:51:09;;;;;;;10.85;5.32;;;18.30;99.90;;;;;;5097549;28;20130;-61
2022/08/09 06:53:35;;;;;;;6.63;4.60;;;18.70;99.90;;;;;;5097022;28;20468;-62
2022/08/09 06:56:01;;;;;;;5.90;4.60;;;19.00;99.90;;;;;;5080467;28;20058;-62
2022/08/09 06:58:30;;;;;;;7.60;5.15;;;19.20;99.90;;;;;;5114074;28;20161;-62
2022/08/09 07:00:56;;;;;;;6.32;4.78;;;19.40;99.90;;;;;;5113995;28;20092;-62
2022/08/09 07:03:23;;;;;;;6.70;4.43;;;19.50;99.90;;;;;;5112872;28;20130;-62
2022/08/09 07:05:49;;;;;;;5.35;3.92;;;19.70;99.90;;;;;;5113072;28;20042;-62
2022/08/09 07:08:16;;;;;;;7.30;4.25;;;19.80;99.90;;;;;;5112484;28;20054;-62
2022/08/09 07:10:42;;;;;;;7.40;4.30;;;20.00;99.90;;;;;;5114840;28;20494;-63
2022/08/09 07:13:08;;;;;;;4.43;3.40;;;20.20;99.90;;;;;;5113715;28;20035;-62
2022/08/09 07:15:35;;;;;;;5.03;4.00;;;20.40;99.90;;;;;;5087696;28;20040;-62
2022/08/09 07:18:00;;;;;;;6.45;4.10;;;20.50;99.90;;;;;;5115029;28;20054;-63
2022/08/09 07:20:26;;;;;;;7.18;3.67;;;20.50;99.90;;;;;;5114785;28;20049;-62
2022/08/09 07:22:52;;;;;;;4.68;3.33;;;20.50;99.90;;;;;;5096268;28;20046;-62
2022/08/09 07:25:19;;;;;;;4.70;3.28;;;20.70;99.90;;;;;;5096275;28;20093;-62
2022/08/09 07:27:45;;;;;;;4.97;3.30;;;21.00;99.90;;;;;;5114525;28;20559;-62
2022/08/09 07:30:12;;;;;;;9.50;3.42;;;21.10;99.90;;;;;;5094950;28;20040;-62
2022/08/09 07:32:40;;;;;;;3.95;2.90;;;21.20;99.90;;;;;;5114448;28;20100;-62
2022/08/09 07:35:08;;;;;;;4.50;3.03;;;21.30;99.90;;;;;;5111153;28;20127;-62
2022/08/09 07:37:35;;;;;;;8.50;3.35;;;21.30;99.90;;;;;;5113516;28;20031;-62
2022/08/09 07:40:01;;;;;;;5.38;2.97;;;21.30;99.90;;;;;;5113244;28;20048;-62
2022/08/09 07:42:27;;;;;;;5.07;2.75;;;21.30;99.90;;;;;;5105074;28;20097;-62
2022/08/09 07:44:53;;;;;;;4.68;2.60;;;21.30;99.90;;;;;;5114298;28;20039;-62
2022/08/09 07:47:19;;;;;;;3.53;2.40;;;21.40;99.90;;;;;;5113410;28;20046;-62
2022/08/09 07:49:44;;;;;;;4.22;2.40;;;21.50;99.90;;;;;;5114494;28;20044;-62
2022/08/09 07:52:10;;;;;;;3.97;2.17;;;21.60;99.90;;;;;;5114330;28;20043;-61
2022/08/09 07:54:37;;;;;;;4.50;2.55;;;21.80;99.90;;;;;;5114157;28;20078;-62
2022/08/09 07:57:03;;;;;;;4.63;2.58;;;22.10;99.90;;;;;;5114312;28;20063;-62
2022/08/09 07:59:29;;;;;;;3.58;2.17;;;22.30;99.90;;;;;;5114224;28;20028;-62
2022/08/09 08:01:55;;;;;;;2.75;2.15;;;22.50;99.90;;;;;;5114339;28;20061;-62
2022/08/09 08:04:21;;;;;;;3.20;1.75;;;22.70;99.90;;;;;;5110769;28;20177;-62
2022/08/09 08:06:47;;;;;;;3.28;1.20;;;22.90;99.90;;;;;;5112905;28;20128;-62
2022/08/09 08:09:13;;;;;;;3.65;1.77;;;23.00;99.90;;;;;;5112877;28;20488;-62
2022/08/09 08:11:39;;;;;;;3.38;1.50;;;23.20;99.90;;;;;;5095624;28;20039;-62
2022/08/09 08:14:05;;;;;;;3.53;1.30;;;23.40;99.90;;;;;;5112596;28;20036;-63
2022/08/09 08:16:31;;;;;;;2.33;1.27;;;23.60;99.90;;;;;;5112641;28;20446;-62
2022/08/09 08:18:57;;;;;;;2.45;1.52;;;23.70;99.90;;;;;;5114148;28;20078;-63
2022/08/09 08:21:24;;;;;;;2.42;1.30;;;23.90;99.90;;;;;;5113747;28;20486;-63
2022/08/09 08:23:50;;;;;;;2.47;1.10;;;24.00;99.90;;;;;;5113900;28;20387;-62
2022/08/09 08:26:16;;;;;;;2.97;1.50;;;24.10;99.90;;;;;;5113763;28;20108;-62
2022/08/09 08:28:42;;;;;;;2.08;1.13;;;24.40;99.90;;;;;;5113529;28;20047;-62
2022/08/09 08:31:08;;;;;;;4.07;1.10;;;24.50;99.90;;;;;;5095384;28;20100;-63
2022/08/09 08:33:34;;;;;;;3.38;1.23;;;24.60;99.90;;;;;;5112217;28;20048;-62
2022/08/09 08:36:00;;;;;;;2.33;1.10;;;24.80;99.90;;;;;;5106958;28;20046;-62
2022/08/09 08:38:27;;;;;;;2.53;1.05;;;24.90;99.90;;;;;;5112131;28;20044;-63
2022/08/09 08:40:55;;;;;;;3.47;1.02;;;25.10;99.90;;;;;;5113064;28;20046;-62
2022/08/09 08:43:22;;;;;;;1.85;1.20;;;25.20;99.90;;;;;;5111979;28;20047;-62
2022/08/09 08:45:56;;;;;;;2.15;1.00;;;25.30;99.90;;;;;;5112174;28;20082;-62
2022/08/09 08:48:23;;;;;;;3.10;1.10;;;25.30;99.90;;;;;;5095388;28;20183;-62
2022/08/09 08:50:49;;;;;;;1.80;1.00;;;25.30;99.90;;;;;;5094966;28;20043;-62
2022/08/09 08:53:15;;;;;;;2.28;1.15;;;25.40;99.90;;;;;;5077965;28;20054;-62
2022/08/09 08:55:42;;;;;;;1.70;0.77;;;25.60;99.90;;;;;;5112922;28;20039;-62
2022/08/09 08:58:10;;;;;;;3.53;0.90;;;25.80;99.90;;;;;;5095246;28;20074;-63
2022/08/09 09:00:36;;;;;;;1.98;0.80;;;25.90;99.90;;;;;;5094903;28;20036;-62
2022/08/09 09:03:03;;;;;;;2.97;1.02;;;26.00;99.90;;;;;;5094883;28;20127;-62
2022/08/09 09:05:31;;;;;;;2.33;0.85;;;25.90;99.90;;;;;;5076070;28;20040;-62
2022/08/09 09:07:58;;;;;;;1.90;1.00;;;25.70;99.90;;;;;;5094830;28;20051;-62
2022/08/09 09:10:27;;;;;;;2.03;0.80;;;25.50;99.90;;;;;;5113016;28;20422;-62
2022/08/09 09:12:53;;;;;;;;;;;25.20;99.80;;;;;;5113385;28;20082;-62
2022/08/09 09:15:19;;;;;;;2.35;0.68;;;24.70;99.90;;;;;;5094734;28;19959;-62
2022/08/09 09:17:45;;;;;;;1.42;0.60;;;24.30;99.90;;;;;;5094698;28;20039;-63
2022/08/09 09:20:13;;;;;;;3.80;0.70;;;24.40;99.90;;;;;;5094823;28;20085;-63
2022/08/09 09:22:51;;;;;;;5.32;0.93;;;24.70;99.90;;;;;;5112948;28;20107;-63
2022/08/09 09:25:31;;;;;;;2.15;0.80;;;25.10;99.90;;;;;;5094834;28;20122;-63
2022/08/09 09:27:58;;;;;;;0.93;0.52;;;25.40;99.90;;;;;;5112886;28;20118;-63
2022/08/09 09:30:24;;;;;;;1.38;0.60;;;25.80;99.70;;;;;;5086752;28;20065;-63
2022/08/09 09:33:06;;;;;;;2.00;0.68;;;26.20;99.20;;;;;;5111603;28;20480;-63
2022/08/09 09:35:54;;;;;;;1.92;0.88;;;26.50;98.50;;;;;;5109218;28;20047;-64
2022/08/09 09:38:37;;;;;;;3.08;0.68;;;26.40;97.20;;;;;;5094627;28;20038;-62
2022/08/09 09:41:03;;;;;;;2.03;0.85;;;26.10;97.70;;;;;;5111436;28;20128;-63
2022/08/09 09:43:30;;;;;;;1.98;0.68;;;26.20;96.60;;;;;;5110430;28;20118;-62
2022/08/09 09:45:56;;;;;;;1.85;0.65;;;26.30;96.40;;;;;;5111090;28;20793;-62
2022/08/09 09:48:23;;;;;;;0.90;0.45;;;26.30;97.10;;;;;;5112620;28;20164;-63
2022/08/09 09:50:50;;;;;;;1.50;0.70;;;26.60;96.80;;;;;;5112862;28;20039;-62
2022/08/09 09:53:22;;;;;;;3.42;0.90;;;26.80;95.90;;;;;;5112417;28;20082;-62
2022/08/09 09:56:01;;;;;;;1.98;0.73;;;26.90;94.50;;;;;;5116197;28;20036;-63
2022/08/09 09:58:47;;;;;;;1.33;0.60;;;27.10;93.60;;;;;;5116117;28;20043;-63
2022/08/09 10:01:19;;;;;;;2.13;0.82;;;27.20;94.70;;;;;;5097969;28;20527;-63
2022/08/09 10:03:47;;;;;;;2.72;0.95;;;27.30;95.10;;;;;;5114876;28;20097;-63
2022/08/09 10:06:14;;;;;;;1.55;0.65;;;27.40;94.10;;;;;;5112449;28;20464;-62
2022/08/09 10:08:41;;;;;;;1.63;0.60;;;27.60;93.20;;;;;;5097851;28;20043;-62
2022/08/09 10:11:25;;;;;;;2.85;0.90;;;27.80;91.90;;;;;;5097693;28;20666;-63
2022/08/09 10:13:52;;;;;;;2.30;0.73;;;27.90;90.90;;;;;;5097863;28;20330;-62
2022/08/09 10:16:27;;;;;;;2.17;0.80;;;27.90;91.60;;;;;;5116220;28;20042;-61
2022/08/09 10:18:54;;;;;;;3.03;0.88;;;27.90;88.80;;;;;;5097960;28;20047;-61
2022/08/09 10:21:23;;;;;;;1.63;0.70;;;27.90;84.60;;;;;;5115392;28;20039;-62
2022/08/09 10:23:49;;;;;;;2.17;0.50;;;27.90;85.80;;;;;;5097674;28;20040;-61
2022/08/09 10:26:16;;;;;;;1.38;0.70;;;27.80;88.10;;;;;;5097661;28;20071;-61
2022/08/09 10:28:43;;;;;;;2.17;0.80;;;27.70;87.60;;;;;;5080495;28;20039;-61
2022/08/09 10:31:12;;;;;;;1.50;0.70;;;27.70;90.20;;;;;;5115729;28;20122;-61
2022/08/09 10:33:38;;;;;;;2.05;0.70;;;28.00;90.40;;;;;;5097466;28;20043;-62
2022/08/09 10:36:06;;;;;;;1.58;0.70;;;28.30;90.20;;;;;;5095199;28;20050;-63
2022/08/09 10:38:32;;;;;;;1.63;0.70;;;28.60;86.50;;;;;;5115533;28;20035;-62
2022/08/09 10:40:58;;;;;;;1.92;0.90;;;28.60;84.00;;;;;;5080710;28;20122;-62
2022/08/09 10:43:25;;;;;;;0.95;0.50;;;28.60;86.20;;;;;;5102086;28;20499;-62
2022/08/09 10:45:51;;;;;;;2.08;0.90;;;28.70;83.30;;;;;;5077189;28;20051;-63
2022/08/09 10:48:46;;;;;;;0.80;0.60;;;28.70;83.60;;;;;;5060161;28;20523;-63
2022/08/09 10:51:49;;;;;;;2.25;0.80;;;28.70;84.50;;;;;;5095098;28;20044;-62
2022/08/09 10:54:21;;;;;;;1.00;0.50;;;29.00;83.90;;;;;;5076715;28;20044;-62
2022/08/09 10:56:51;;;;;;;1.67;0.50;;;29.10;81.70;;;;;;5076818;28;20044;-62
2022/08/09 10:59:29;;;;;;;2.90;0.60;;;29.20;81.50;;;;;;5076684;28;20036;-62
2022/08/09 11:01:55;;;;;;;2.15;0.90;;;29.20;80.80;;;;;;5076941;28;20097;-62
2022/08/09 11:04:24;;;;;;;1.30;0.68;;;29.10;81.60;;;;;;5074099;28;20488;-62
2022/08/09 11:07:02;;;;;;;2.08;0.85;;;29.00;81.20;;;;;;5076280;28;20064;-62
2022/08/09 11:09:37;;;;;;;2.58;0.60;;;29.00;79.60;;;;;;5076232;28;20052;-62
2022/08/09 11:12:18;;;;;;;4.82;2.00;;;29.00;80.50;;;;;;5076418;28;20479;-62
2022/08/09 11:14:53;;;;;;;3.38;0.60;;;29.10;79.80;;;;;;5094301;28;20410;-62
2022/08/09 11:17:19;;;;;;;2.20;0.60;;;29.00;81.50;;;;;;5076532;28;20044;-62
2022/08/09 11:19:54;;;;;;;1.55;0.70;;;29.00;81.00;;;;;;5076048;28;20040;-62
2022/08/09 11:22:21;;;;;;;2.42;0.65;;;29.10;80.30;;;;;;5076444;28;20032;-62
2022/08/09 11:24:56;;;;;;;0.77;0.40;;;28.80;79.10;;;;;;5094297;28;20039;-62
2022/08/09 11:27:35;;;;;;;2.72;0.73;;;28.40;79.90;;;;;;5114624;28;20035;-62
2022/08/09 11:30:26;;;;;;;1.42;0.60;;;28.00;79.70;;;;;;5096156;28;20073;-61
2022/08/09 11:33:04;;;;;;;5.10;0.80;;;28.00;82.90;;;;;;5095474;28;20043;-62
2022/08/09 11:35:41;;;;;;;1.27;0.77;;;28.00;83.50;;;;;;5093809;28;20079;-63
2022/08/09 11:38:29;;;;;;;1.85;0.70;;;28.00;84.30;;;;;;5114085;28;20039;-62
2022/08/09 11:40:56;;;;;;;1.80;0.90;;;27.90;84.60;;;;;;5075177;28;20086;-62
2022/08/09 11:43:25;;;;;;;1.77;0.70;;;27.70;82.60;;;;;;5114386;28;20047;-62
2022/08/09 11:45:56;;;;;;;2.75;1.00;;;27.50;84.40;;;;;;5113957;28;20059;-62
2022/08/09 11:48:26;;;;;;;1.63;0.50;;;27.50;84.30;;;;;;5079342;28;20050;-63
2022/08/09 11:50:55;;;;;;;0.90;0.52;;;27.30;84.30;;;;;;5096006;28;20062;-62
2022/08/09 11:53:28;;;;;;;1.52;0.70;;;27.10;84.90;;;;;;5114043;28;20065;-62
2022/08/09 11:55:56;;;;;;;1.30;0.70;;;27.00;86.80;;;;;;5094024;28;20118;-62
2022/08/09 11:58:29;;;;;;;1.15;0.60;;;27.10;86.40;;;;;;5112280;28;20044;-62
2022/08/09 12:00:55;;;;;;;1.58;0.68;;;27.40;87.90;;;;;;5095661;28;20050;-62
2022/08/09 12:03:23;;;;;;;2.58;0.60;;;27.70;87.50;;;;;;5094966;28;20044;-61
2022/08/09 12:05:51;;;;;;;3.87;0.87;;;27.80;85.90;;;;;;5111650;28;20060;-62
2022/08/09 12:08:18;;;;;;;2.15;1.30;;;27.70;85.50;;;;;;5112642;28;20622;-62
2022/08/09 12:10:48;;;;;;;2.13;0.82;;;27.50;87.00;;;;;;5095216;28;20051;-62
2022/08/09 12:13:32;;;;;;;1.17;0.50;;;27.60;84.50;;;;;;5078652;28;20106;-61
2022/08/09 12:16:03;;;;;;;1.52;0.70;;;27.60;86.00;;;;;;5078064;28;20042;-62
2022/08/09 12:18:30;;;;;;;2.35;0.65;;;27.50;85.20;;;;;;5095746;28;20071;-62
2022/08/09 12:20:56;;;;;;;3.15;0.85;;;27.10;85.80;;;;;;5094947;28;20092;-61
2022/08/09 12:23:22;;;;;;;1.58;0.70;;;27.10;86.00;;;;;;5113837;28;20027;-62
2022/08/09 12:25:50;;;;;;;2.17;0.85;;;26.90;85.30;;;;;;5095590;28;20035;-61
2022/08/09 12:28:26;;;;;;;1.90;0.68;;;26.80;86.30;;;;;;5095159;28;20036;-62
2022/08/09 12:30:52;;;;;;;1.75;0.60;;;26.80;88.00;;;;;;5094906;28;20104;-62
2022/08/09 12:33:19;;;;;;;1.80;0.63;;;26.80;87.80;;;;;;5078414;28;20070;-61
2022/08/09 12:35:46;;;;;;;1.20;0.47;;;26.80;88.00;;;;;;5092802;28;20062;-62
2022/08/09 12:38:29;;;;;;;2.03;0.60;;;26.70;87.80;;;;;;5095405;28;20035;-62
2022/08/09 12:40:57;;;;;;;2.70;0.82;;;26.70;84.40;;;;;;5094926;28;20039;-62
2022/08/09 12:43:25;;;;;;;2.17;0.50;;;26.60;86.50;;;;;;5094568;28;20747;-62
2022/08/09 12:45:57;;;;;;;1.58;0.60;;;26.70;88.60;;;;;;5113125;28;20038;-63
2022/08/09 12:48:25;;;;;;;1.48;0.40;;;26.60;88.40;;;;;;5113582;28;20035;-63
2022/08/09 12:50:51;;;;;;;1.35;0.50;;;26.40;89.20;;;;;;5113483;28;20067;-64
2022/08/09 12:53:38;;;;;;;3.38;0.52;;;26.40;88.80;;;;;;5094992;28;20498;-64